sensor_id;sensor_type;location;lat;lon;timestamp;pressure;altitude;pressure_sealevel;temperature;humidity
52923;BME280;38796;42.702;23.306;2023-02-05T00:01:53;95339.88;;;-3.27;89.03
52923;BME280;38796;42.702;23.306;2023-02-05T00:03:51;95348.34;;;-3.23;88.78
52923;BME280;38796;42.702;23.306;2023-02-05T00:05:49;95339.88;;;-3.27;89.24
52923;BME280;38796;42.702;23.306;2023-02-05T00:07:48;95343.97;;;-3.21;88.89
52923;BME280;38796;42.702;23.306;2023-02-05T00:09:46;95352.44;;;-3.18;88.35
52923;BME280;38796;42.702;23.306;2023-02-05T00:11:44;95343.94;;;-3.20;87.85
52923;BME280;38796;42.702;23.306;2023-02-05T00:13:43;95349.19;;;-3.23;87.78
52923;BME280;38796;42.702;23.306;2023-02-05T00:15:43;95347.47;;;-3.22;87.58
52923;BME280;38796;42.702;23.306;2023-02-05T00:17:41;95353.41;;;-3.20;87.39
52923;BME280;38796;42.702;23.306;2023-02-05T00:19:39;95345.44;;;-3.12;86.79
52923;BME280;38796;42.702;23.306;2023-02-05T00:21:38;95353.81;;;-3.06;86.69
52923;BME280;38796;42.702;23.306;2023-02-05T00:23:37;95359.06;;;-3.09;86.37
52923;BME280;38796;42.702;23.306;2023-02-05T00:25:35;95355.00;;;-3.16;87.12
52923;BME280;38796;42.702;23.306;2023-02-05T00:27:33;95339.91;;;-3.28;86.64
52923;BME280;38796;42.702;23.306;2023-02-05T00:29:32;95338.34;;;-3.32;86.37
52923;BME280;38796;42.702;23.306;2023-02-05T00:31:31;95353.84;;;-3.34;87.23
52923;BME280;38796;42.702;23.306;2023-02-05T00:33:30;95350.53;;;-3.38;87.29
52923;BME280;38796;42.702;23.306;2023-02-05T00:35:28;95344.47;;;-3.35;87.26
52923;BME280;38796;42.702;23.306;2023-02-05T00:37:27;95352.28;;;-3.38;86.83
52923;BME280;38796;42.702;23.306;2023-02-05T00:39:25;95351.22;;;-3.32;86.66
52923;BME280;38796;42.702;23.306;2023-02-05T00:41:23;95362.41;;;-3.33;87.02
52923;BME280;38796;42.702;23.306;2023-02-05T00:43:21;95354.69;;;-3.33;86.66
52923;BME280;38796;42.702;23.306;2023-02-05T00:45:20;95364.00;;;-3.29;86.18
52923;BME280;38796;42.702;23.306;2023-02-05T00:47:19;95359.00;;;-3.34;86.10
52923;BME280;38796;42.702;23.306;2023-02-05T00:49:18;95366.75;;;-3.35;86.23
52923;BME280;38796;42.702;23.306;2023-02-05T00:51:16;95374.78;;;-3.45;85.66
52923;BME280;38796;42.702;23.306;2023-02-05T00:53:14;95380.72;;;-3.43;86.46
52923;BME280;38796;42.702;23.306;2023-02-05T00:55:13;95377.38;;;-3.45;86.24
52923;BME280;38796;42.702;23.306;2023-02-05T00:57:11;95373.13;;;-3.46;86.24
52923;BME280;38796;42.702;23.306;2023-02-05T00:59:09;95372.13;;;-3.42;86.24
52923;BME280;38796;42.702;23.306;2023-02-05T01:01:07;95374.59;;;-3.39;85.03
52923;BME280;38796;42.702;23.306;2023-02-05T01:03:07;95370.97;;;-3.33;85.43
52923;BME280;38796;42.702;23.306;2023-02-05T01:05:06;95378.50;;;-3.27;85.22
52923;BME280;38796;42.702;23.306;2023-02-05T01:07:04;95375.97;;;-3.28;84.65
52923;BME280;38796;42.702;23.306;2023-02-05T01:09:03;95378.75;;;-3.34;84.66
52923;BME280;38796;42.702;23.306;2023-02-05T01:11:05;95386.59;;;-3.38;85.41
52923;BME280;38796;42.702;23.306;2023-02-05T01:13:04;95380.59;;;-3.38;85.12
52923;BME280;38796;42.702;23.306;2023-02-05T01:15:05;95384.78;;;-3.35;86.21
52923;BME280;38796;42.702;23.306;2023-02-05T01:17:03;95384.19;;;-3.44;85.21
52923;BME280;38796;42.702;23.306;2023-02-05T01:19:03;95379.03;;;-3.44;85.86
52923;BME280;38796;42.702;23.306;2023-02-05T01:21:01;95386.25;;;-3.55;85.06
52923;BME280;38796;42.702;23.306;2023-02-05T01:23:00;95374.44;;;-3.60;85.86
52923;BME280;38796;42.702;23.306;2023-02-05T01:24:58;95385.75;;;-3.66;85.91
52923;BME280;38796;42.702;23.306;2023-02-05T01:26:56;95370.31;;;-3.66;85.41
52923;BME280;38796;42.702;23.306;2023-02-05T01:28:54;95386.34;;;-3.58;85.95
52923;BME280;38796;42.702;23.306;2023-02-05T01:30:52;95382.94;;;-3.58;85.06
52923;BME280;38796;42.702;23.306;2023-02-05T01:32:51;95378.78;;;-3.63;85.29
52923;BME280;38796;42.702;23.306;2023-02-05T01:34:51;95384.00;;;-3.66;85.41
52923;BME280;38796;42.702;23.306;2023-02-05T01:36:49;95384.91;;;-3.67;86.21
52923;BME280;38796;42.702;23.306;2023-02-05T01:38:48;95396.78;;;-3.63;86.03
52923;BME280;38796;42.702;23.306;2023-02-05T01:40:46;95388.13;;;-3.60;85.49
52923;BME280;38796;42.702;23.306;2023-02-05T01:42:44;95401.44;;;-3.75;85.73
52923;BME280;38796;42.702;23.306;2023-02-05T01:44:42;95390.97;;;-3.69;86.32
52923;BME280;38796;42.702;23.306;2023-02-05T01:46:42;95401.34;;;-3.71;85.38
52923;BME280;38796;42.702;23.306;2023-02-05T01:48:43;95398.78;;;-3.72;86.11
52923;BME280;38796;42.702;23.306;2023-02-05T01:50:46;95398.00;;;-3.74;86.69
52923;BME280;38796;42.702;23.306;2023-02-05T01:52:45;95400.50;;;-3.71;85.60
52923;BME280;38796;42.702;23.306;2023-02-05T01:54:45;95396.22;;;-3.72;86.29
52923;BME280;38796;42.702;23.306;2023-02-05T01:56:48;95416.53;;;-3.63;85.50
52923;BME280;38796;42.702;23.306;2023-02-05T01:58:50;95412.16;;;-3.59;85.49
52923;BME280;38796;42.702;23.306;2023-02-05T02:00:50;95412.00;;;-3.55;85.77
52923;BME280;38796;42.702;23.306;2023-02-05T02:02:48;95415.72;;;-3.65;84.24
52923;BME280;38796;42.702;23.306;2023-02-05T02:04:49;95407.31;;;-3.70;84.02
52923;BME280;38796;42.702;23.306;2023-02-05T02:06:50;95408.41;;;-3.79;84.58
52923;BME280;38796;42.702;23.306;2023-02-05T02:08:48;95419.88;;;-3.89;84.64
52923;BME280;38796;42.702;23.306;2023-02-05T02:10:47;95426.56;;;-3.83;84.89
52923;BME280;38796;42.702;23.306;2023-02-05T02:12:48;95418.25;;;-3.92;84.43
52923;BME280;38796;42.702;23.306;2023-02-05T02:14:49;95402.75;;;-3.90;84.96
52923;BME280;38796;42.702;23.306;2023-02-05T02:16:49;95422.47;;;-3.91;85.41
52923;BME280;38796;42.702;23.306;2023-02-05T02:18:49;95418.91;;;-3.85;85.27
52923;BME280;38796;42.702;23.306;2023-02-05T02:20:55;95418.06;;;-3.85;85.10
52923;BME280;38796;42.702;23.306;2023-02-05T02:23:09;95425.13;;;-3.94;85.99
52923;BME280;38796;42.702;23.306;2023-02-05T02:27:47;95424.16;;;-3.90;85.78
52923;BME280;38796;42.702;23.306;2023-02-05T02:29:51;95411.66;;;-4.02;86.19
52923;BME280;38796;42.702;23.306;2023-02-05T02:31:56;95417.72;;;-4.04;86.31
52923;BME280;38796;42.702;23.306;2023-02-05T02:33:59;95427.25;;;-4.08;87.09
52923;BME280;38796;42.702;23.306;2023-02-05T02:36:04;95424.81;;;-4.11;88.26
52923;BME280;38796;42.702;23.306;2023-02-05T02:38:08;95431.53;;;-4.07;88.92
52923;BME280;38796;42.702;23.306;2023-02-05T02:40:12;95428.28;;;-4.14;89.01
52923;BME280;38796;42.702;23.306;2023-02-05T02:42:15;95435.31;;;-4.20;89.12
52923;BME280;38796;42.702;23.306;2023-02-05T02:44:20;95440.63;;;-4.26;90.53
52923;BME280;38796;42.702;23.306;2023-02-05T02:46:23;95428.50;;;-4.21;90.27
52923;BME280;38796;42.702;23.306;2023-02-05T02:48:26;95431.22;;;-4.27;90.84
52923;BME280;38796;42.702;23.306;2023-02-05T02:50:27;95429.44;;;-4.24;90.48
52923;BME280;38796;42.702;23.306;2023-02-05T02:52:32;95435.31;;;-4.20;90.41
52923;BME280;38796;42.702;23.306;2023-02-05T02:54:33;95440.59;;;-4.25;90.67
52923;BME280;38796;42.702;23.306;2023-02-05T02:56:36;95441.47;;;-4.26;90.89
52923;BME280;38796;42.702;23.306;2023-02-05T02:58:39;95442.44;;;-4.30;91.36
52923;BME280;38796;42.702;23.306;2023-02-05T03:00:40;95454.50;;;-4.32;91.07
52923;BME280;38796;42.702;23.306;2023-02-05T03:02:42;95439.19;;;-4.37;90.52
52923;BME280;38796;42.702;23.306;2023-02-05T03:04:44;95441.94;;;-4.43;90.67
52923;BME280;38796;42.702;23.306;2023-02-05T03:06:47;95446.88;;;-4.35;90.66
52923;BME280;38796;42.702;23.306;2023-02-05T03:08:51;95439.03;;;-4.30;90.14
52923;BME280;38796;42.702;23.306;2023-02-05T03:10:55;95454.22;;;-4.54;90.14
52923;BME280;38796;42.702;23.306;2023-02-05T03:12:58;95452.22;;;-4.43;89.90
52923;BME280;38796;42.702;23.306;2023-02-05T03:14:57;95458.06;;;-4.38;90.59
52923;BME280;38796;42.702;23.306;2023-02-05T03:16:58;95463.94;;;-4.32;90.77
52923;BME280;38796;42.702;23.306;2023-02-05T03:18:59;95463.97;;;-4.34;91.34
52923;BME280;38796;42.702;23.306;2023-02-05T03:21:01;95460.63;;;-4.36;91.16
52923;BME280;38796;42.702;23.306;2023-02-05T03:23:00;95465.63;;;-4.31;90.69
52923;BME280;38796;42.702;23.306;2023-02-05T03:24:58;95470.78;;;-4.33;91.14
52923;BME280;38796;42.702;23.306;2023-02-05T03:26:59;95467.53;;;-4.07;92.72
52923;BME280;38796;42.702;23.306;2023-02-05T03:29:00;95472.78;;;-4.10;90.56
52923;BME280;38796;42.702;23.306;2023-02-05T03:31:04;95466.25;;;-4.23;90.68
52923;BME280;38796;42.702;23.306;2023-02-05T03:33:18;95474.41;;;-4.40;91.60
52923;BME280;38796;42.702;23.306;2023-02-05T03:35:25;95471.31;;;-4.53;91.63
52923;BME280;38796;42.702;23.306;2023-02-05T03:37:34;95473.13;;;-4.56;92.25
52923;BME280;38796;42.702;23.306;2023-02-05T03:39:46;95469.81;;;-4.62;92.93
52923;BME280;38796;42.702;23.306;2023-02-05T03:41:52;95468.78;;;-4.54;92.47
52923;BME280;38796;42.702;23.306;2023-02-05T03:44:08;95479.44;;;-4.36;91.84
52923;BME280;38796;42.702;23.306;2023-02-05T03:46:15;95474.66;;;-4.49;91.71
52923;BME280;38796;42.702;23.306;2023-02-05T03:48:34;95468.97;;;-4.62;92.37
52923;BME280;38796;42.702;23.306;2023-02-05T03:50:39;95472.97;;;-4.50;92.79
52923;BME280;38796;42.702;23.306;2023-02-05T03:52:41;95470.41;;;-4.50;92.11
52923;BME280;38796;42.702;23.306;2023-02-05T03:54:47;95477.66;;;-4.66;91.49
52923;BME280;38796;42.702;23.306;2023-02-05T03:56:57;95481.19;;;-4.70;92.40
52923;BME280;38796;42.702;23.306;2023-02-05T03:58:57;95487.22;;;-4.73;92.39
52923;BME280;38796;42.702;23.306;2023-02-05T04:00:56;95484.72;;;-4.74;92.51
52923;BME280;38796;42.702;23.306;2023-02-05T04:02:55;95480.41;;;-4.74;92.59
52923;BME280;38796;42.702;23.306;2023-02-05T04:05:00;95496.66;;;-4.72;92.53
52923;BME280;38796;42.702;23.306;2023-02-05T04:06:58;95483.81;;;-4.73;92.42
52923;BME280;38796;42.702;23.306;2023-02-05T04:08:57;95491.47;;;-4.70;91.32
52923;BME280;38796;42.702;23.306;2023-02-05T04:10:55;95493.44;;;-4.81;91.58
52923;BME280;38796;42.702;23.306;2023-02-05T04:12:54;95495.13;;;-4.80;91.28
52923;BME280;38796;42.702;23.306;2023-02-05T04:14:52;95493.53;;;-4.85;91.24
52923;BME280;38796;42.702;23.306;2023-02-05T04:16:50;95497.81;;;-4.85;91.64
52923;BME280;38796;42.702;23.306;2023-02-05T04:18:51;95503.78;;;-4.85;91.46
52923;BME280;38796;42.702;23.306;2023-02-05T04:20:51;95495.19;;;-4.84;91.30
52923;BME280;38796;42.702;23.306;2023-02-05T04:22:53;95498.25;;;-4.68;90.49
52923;BME280;38796;42.702;23.306;2023-02-05T04:24:52;95493.31;;;-4.75;91.00
52923;BME280;38796;42.702;23.306;2023-02-05T04:26:50;95495.38;;;-4.90;91.90
52923;BME280;38796;42.702;23.306;2023-02-05T04:28:49;95502.31;;;-4.93;92.23
52923;BME280;38796;42.702;23.306;2023-02-05T04:30:48;95495.50;;;-4.96;91.58
52923;BME280;38796;42.702;23.306;2023-02-05T04:32:46;95505.53;;;-4.85;91.79
52923;BME280;38796;42.702;23.306;2023-02-05T04:34:46;95499.81;;;-4.96;91.32
52923;BME280;38796;42.702;23.306;2023-02-05T04:36:46;95506.66;;;-4.97;91.79
52923;BME280;38796;42.702;23.306;2023-02-05T04:38:45;95510.38;;;-5.10;91.00
52923;BME280;38796;42.702;23.306;2023-02-05T04:40:44;95513.16;;;-5.19;91.42
52923;BME280;38796;42.702;23.306;2023-02-05T04:42:42;95513.00;;;-5.12;92.47
52923;BME280;38796;42.702;23.306;2023-02-05T04:44:41;95511.34;;;-5.14;92.81
52923;BME280;38796;42.702;23.306;2023-02-05T04:46:39;95512.28;;;-5.18;93.75
52923;BME280;38796;42.702;23.306;2023-02-05T04:48:38;95509.78;;;-5.21;93.74
52923;BME280;38796;42.702;23.306;2023-02-05T04:50:37;95520.06;;;-5.21;94.28
52923;BME280;38796;42.702;23.306;2023-02-05T04:52:36;95521.97;;;-5.29;94.46
52923;BME280;38796;42.702;23.306;2023-02-05T04:54:35;95513.44;;;-5.32;95.02
52923;BME280;38796;42.702;23.306;2023-02-05T04:56:34;95521.13;;;-5.32;95.20
52923;BME280;38796;42.702;23.306;2023-02-05T04:58:32;95520.25;;;-5.31;96.10
52923;BME280;38796;42.702;23.306;2023-02-05T05:00:30;95516.81;;;-5.29;96.59
52923;BME280;38796;42.702;23.306;2023-02-05T05:02:29;95532.72;;;-5.14;97.29
52923;BME280;38796;42.702;23.306;2023-02-05T05:04:27;95532.38;;;-4.98;96.79
52923;BME280;38796;42.702;23.306;2023-02-05T05:06:25;95526.75;;;-5.14;96.47
52923;BME280;38796;42.702;23.306;2023-02-05T05:08:25;95527.88;;;-5.26;96.62
52923;BME280;38796;42.702;23.306;2023-02-05T05:10:23;95535.69;;;-5.32;97.21
52923;BME280;38796;42.702;23.306;2023-02-05T05:12:21;95539.16;;;-5.35;97.67
52923;BME280;38796;42.702;23.306;2023-02-05T05:14:20;95540.03;;;-5.36;98.21
52923;BME280;38796;42.702;23.306;2023-02-05T05:16:18;95546.06;;;-5.38;98.47
52923;BME280;38796;42.702;23.306;2023-02-05T05:18:16;95547.06;;;-5.44;98.64
52923;BME280;38796;42.702;23.306;2023-02-05T05:20:15;95545.47;;;-5.49;98.76
52923;BME280;38796;42.702;23.306;2023-02-05T05:22:13;95544.63;;;-5.50;99.65
52923;BME280;38796;42.702;23.306;2023-02-05T05:24:12;95543.78;;;-5.50;99.78
52923;BME280;38796;42.702;23.306;2023-02-05T05:26:11;95548.00;;;-5.48;100.00
52923;BME280;38796;42.702;23.306;2023-02-05T05:28:10;95547.81;;;-5.39;100.00
52923;BME280;38796;42.702;23.306;2023-02-05T05:30:10;95558.13;;;-5.42;100.00
52923;BME280;38796;42.702;23.306;2023-02-05T05:32:08;95559.78;;;-5.39;99.98
52923;BME280;38796;42.702;23.306;2023-02-05T05:34:07;95557.16;;;-5.36;99.62
52923;BME280;38796;42.702;23.306;2023-02-05T05:36:06;95566.63;;;-5.38;99.61
52923;BME280;38796;42.702;23.306;2023-02-05T05:38:04;95570.16;;;-5.44;99.24
52923;BME280;38796;42.702;23.306;2023-02-05T05:40:05;95569.38;;;-5.47;99.84
52923;BME280;38796;42.702;23.306;2023-02-05T05:42:21;95568.63;;;-5.52;100.00
52923;BME280;38796;42.702;23.306;2023-02-05T05:44:33;95577.94;;;-5.48;100.00
52923;BME280;38796;42.702;23.306;2023-02-05T05:46:32;95577.88;;;-5.45;100.00
52923;BME280;38796;42.702;23.306;2023-02-05T05:48:30;95586.53;;;-5.49;99.80
52923;BME280;38796;42.702;23.306;2023-02-05T05:50:29;95591.50;;;-5.42;99.93
52923;BME280;38796;42.702;23.306;2023-02-05T05:52:30;95588.88;;;-5.39;99.82
52923;BME280;38796;42.702;23.306;2023-02-05T05:54:28;95596.50;;;-5.36;99.82
52923;BME280;38796;42.702;23.306;2023-02-05T05:56:28;95586.41;;;-5.45;99.48
52923;BME280;38796;42.702;23.306;2023-02-05T05:58:26;95593.22;;;-5.41;99.57
52923;BME280;38796;42.702;23.306;2023-02-05T06:00:24;95598.34;;;-5.41;99.51
52923;BME280;38796;42.702;23.306;2023-02-05T06:02:23;95600.81;;;-5.38;99.71
52923;BME280;38796;42.702;23.306;2023-02-05T06:04:21;95599.34;;;-5.48;99.27
52923;BME280;38796;42.702;23.306;2023-02-05T06:06:20;95604.28;;;-5.39;99.57
52923;BME280;38796;42.702;23.306;2023-02-05T06:08:18;95605.09;;;-5.38;99.43
52923;BME280;38796;42.702;23.306;2023-02-05T06:10:16;95601.81;;;-5.43;98.74
52923;BME280;38796;42.702;23.306;2023-02-05T06:12:16;95604.28;;;-5.39;99.35
52923;BME280;38796;42.702;23.306;2023-02-05T06:14:14;95614.53;;;-5.39;99.02
52923;BME280;38796;42.702;23.306;2023-02-05T06:16:12;95614.13;;;-5.19;99.54
52923;BME280;38796;42.702;23.306;2023-02-05T06:18:10;95615.38;;;-4.96;98.33
52923;BME280;38796;42.702;23.306;2023-02-05T06:20:10;95624.19;;;-5.08;96.79
52923;BME280;38796;42.702;23.306;2023-02-05T06:22:08;95616.72;;;-5.19;97.46
52923;BME280;38796;42.702;23.306;2023-02-05T06:24:07;95626.97;;;-5.19;97.92
52923;BME280;38796;42.702;23.306;2023-02-05T06:26:05;95633.69;;;-5.13;97.66
52923;BME280;38796;42.702;23.306;2023-02-05T06:28:05;95634.47;;;-5.08;97.49
52923;BME280;38796;42.702;23.306;2023-02-05T06:30:04;95634.19;;;-4.96;96.71
52923;BME280;38796;42.702;23.306;2023-02-05T06:32:02;95631.72;;;-5.00;96.10
52923;BME280;38796;42.702;23.306;2023-02-05T06:34:00;95644.69;;;-5.07;96.03
52923;BME280;38796;42.702;23.306;2023-02-05T06:35:59;95648.09;;;-5.06;95.94
52923;BME280;38796;42.702;23.306;2023-02-05T06:37:57;95648.03;;;-5.03;96.14
52923;BME280;38796;42.702;23.306;2023-02-05T06:39:55;95654.91;;;-5.03;95.88
52923;BME280;38796;42.702;23.306;2023-02-05T06:41:54;95656.75;;;-5.10;95.56
52923;BME280;38796;42.702;23.306;2023-02-05T06:43:53;95656.56;;;-5.02;95.36
52923;BME280;38796;42.702;23.306;2023-02-05T06:45:52;95654.00;;;-5.01;95.01
52923;BME280;38796;42.702;23.306;2023-02-05T06:47:51;95658.31;;;-5.03;95.38
52923;BME280;38796;42.702;23.306;2023-02-05T06:49:51;95664.97;;;-4.94;95.45
52923;BME280;38796;42.702;23.306;2023-02-05T06:51:50;95671.75;;;-4.92;94.86
52923;BME280;38796;42.702;23.306;2023-02-05T06:53:48;95665.66;;;-4.86;94.48
52923;BME280;38796;42.702;23.306;2023-02-05T06:55:48;95669.19;;;-4.90;93.16
52923;BME280;38796;42.702;23.306;2023-02-05T06:57:46;95674.34;;;-4.92;93.45
52923;BME280;38796;42.702;23.306;2023-02-05T06:59:46;95678.69;;;-4.94;93.38
52923;BME280;38796;42.702;23.306;2023-02-05T07:01:44;95670.75;;;-4.83;93.62
52923;BME280;38796;42.702;23.306;2023-02-05T07:03:43;95677.34;;;-4.71;93.55
52923;BME280;38796;42.702;23.306;2023-02-05T07:05:41;95673.75;;;-4.64;92.83
52923;BME280;38796;42.702;23.306;2023-02-05T07:07:40;95674.34;;;-4.53;92.32
52923;BME280;38796;42.702;23.306;2023-02-05T07:09:38;95681.00;;;-4.43;91.77
52923;BME280;38796;42.702;23.306;2023-02-05T07:11:36;95672.97;;;-4.30;90.93
52923;BME280;38796;42.702;23.306;2023-02-05T07:13:34;95685.72;;;-4.24;90.41
52923;BME280;38796;42.702;23.306;2023-02-05T07:15:35;95682.19;;;-4.20;89.88
52923;BME280;38796;42.702;23.306;2023-02-05T07:17:33;95694.16;;;-4.19;89.84
52923;BME280;38796;42.702;23.306;2023-02-05T07:19:32;95697.66;;;-4.23;89.35
52923;BME280;38796;42.702;23.306;2023-02-05T07:21:31;95691.03;;;-4.33;89.94
52923;BME280;38796;42.702;23.306;2023-02-05T07:23:29;95697.66;;;-4.23;90.18
52923;BME280;38796;42.702;23.306;2023-02-05T07:25:27;95698.34;;;-4.15;89.87
52923;BME280;38796;42.702;23.306;2023-02-05T07:27:29;95704.47;;;-4.21;89.45
52923;BME280;38796;42.702;23.306;2023-02-05T07:29:27;95695.22;;;-4.28;89.87
52923;BME280;38796;42.702;23.306;2023-02-05T07:31:27;95699.34;;;-4.22;89.53
52923;BME280;38796;42.702;23.306;2023-02-05T07:33:25;95705.38;;;-4.23;89.75
52923;BME280;38796;42.702;23.306;2023-02-05T07:35:23;95702.81;;;-4.23;90.46
52923;BME280;38796;42.702;23.306;2023-02-05T07:37:22;95714.53;;;-4.10;90.54
52923;BME280;38796;42.702;23.306;2023-02-05T07:39:20;95706.56;;;-4.01;90.21
52923;BME280;38796;42.702;23.306;2023-02-05T07:41:18;95704.88;;;-4.02;89.38
52923;BME280;38796;42.702;23.306;2023-02-05T07:43:16;95701.28;;;-3.95;89.37
52923;BME280;38796;42.702;23.306;2023-02-05T07:45:15;95713.38;;;-3.98;89.15
52923;BME280;38796;42.702;23.306;2023-02-05T07:47:14;95721.28;;;-4.06;89.57
52923;BME280;38796;42.702;23.306;2023-02-05T07:49:12;95720.56;;;-4.11;89.67
52923;BME280;38796;42.702;23.306;2023-02-05T07:51:14;95724.69;;;-4.05;89.73
52923;BME280;38796;42.702;23.306;2023-02-05T07:53:13;95723.91;;;-4.07;89.77
52923;BME280;38796;42.702;23.306;2023-02-05T07:55:12;95729.91;;;-4.08;89.78
52923;BME280;38796;42.702;23.306;2023-02-05T07:57:10;95731.50;;;-4.04;89.69
52923;BME280;38796;42.702;23.306;2023-02-05T07:59:08;95734.78;;;-3.98;89.68
52923;BME280;38796;42.702;23.306;2023-02-05T08:01:07;95732.22;;;-3.96;89.36
52923;BME280;38796;42.702;23.306;2023-02-05T08:03:07;95731.34;;;-3.97;89.48
52923;BME280;38796;42.702;23.306;2023-02-05T08:05:06;95727.56;;;-3.82;89.59
52923;BME280;38796;42.702;23.306;2023-02-05T08:07:05;95743.22;;;-3.55;88.67
52923;BME280;38796;42.702;23.306;2023-02-05T08:09:03;95738.44;;;-3.36;87.21
52923;BME280;38796;42.702;23.306;2023-02-05T08:11:04;95737.25;;;-3.23;86.11
52923;BME280;38796;42.702;23.306;2023-02-05T08:13:02;95744.97;;;-3.23;85.91
52923;BME280;38796;42.702;23.306;2023-02-05T08:15:00;95736.19;;;-3.16;85.39
52923;BME280;38796;42.702;23.306;2023-02-05T08:16:58;95736.75;;;-3.05;84.85
52923;BME280;38796;42.702;23.306;2023-02-05T08:18:58;95743.28;;;-2.93;84.34
52923;BME280;38796;42.702;23.306;2023-02-05T08:20:56;95746.50;;;-2.85;84.20
52923;BME280;38796;42.702;23.306;2023-02-05T08:22:55;95748.69;;;-2.71;83.80
52923;BME280;38796;42.702;23.306;2023-02-05T08:24:53;95743.19;;;-2.29;83.45
52923;BME280;38796;42.702;23.306;2023-02-05T08:26:51;95743.91;;;-1.96;81.12
52923;BME280;38796;42.702;23.306;2023-02-05T08:28:49;95754.22;;;-1.96;80.94
52923;BME280;38796;42.702;23.306;2023-02-05T08:30:47;95746.72;;;-2.04;77.80
52923;BME280;38796;42.702;23.306;2023-02-05T08:32:47;95755.03;;;-1.94;77.56
52923;BME280;38796;42.702;23.306;2023-02-05T08:34:47;95757.19;;;-1.80;74.80
52923;BME280;38796;42.702;23.306;2023-02-05T08:36:45;95758.91;;;-1.81;73.22
52923;BME280;38796;42.702;23.306;2023-02-05T08:38:43;95746.34;;;-1.91;72.06
52923;BME280;38796;42.702;23.306;2023-02-05T08:40:41;95754.25;;;-1.70;72.12
52923;BME280;38796;42.702;23.306;2023-02-05T08:42:40;95753.94;;;-1.34;70.31
52923;BME280;38796;42.702;23.306;2023-02-05T08:44:38;95753.91;;;-1.32;69.99
52923;BME280;38796;42.702;23.306;2023-02-05T08:46:38;95759.56;;;-1.21;68.68
52923;BME280;38796;42.702;23.306;2023-02-05T08:48:46;95757.88;;;-1.22;67.98
52923;BME280;38796;42.702;23.306;2023-02-05T08:50:46;95755.44;;;-1.27;66.46
52923;BME280;38796;42.702;23.306;2023-02-05T08:52:45;95755.13;;;-1.69;67.36
52923;BME280;38796;42.702;23.306;2023-02-05T08:54:43;95750.47;;;-1.59;67.29
52923;BME280;38796;42.702;23.306;2023-02-05T08:56:43;95763.53;;;-1.37;66.50
52923;BME280;38796;42.702;23.306;2023-02-05T08:58:42;95770.69;;;-1.46;65.74
52923;BME280;38796;42.702;23.306;2023-02-05T09:00:40;95779.44;;;-1.50;66.87
52923;BME280;38796;42.702;23.306;2023-02-05T09:02:40;95775.19;;;-1.79;66.64
52923;BME280;38796;42.702;23.306;2023-02-05T09:04:38;95778.13;;;-1.63;66.38
52923;BME280;38796;42.702;23.306;2023-02-05T09:06:38;95789.53;;;-1.68;66.17
52923;BME280;38796;42.702;23.306;2023-02-05T09:08:36;95785.00;;;-1.62;66.51
52923;BME280;38796;42.702;23.306;2023-02-05T09:10:35;95784.16;;;-1.36;65.76
52923;BME280;38796;42.702;23.306;2023-02-05T09:12:33;95796.44;;;-1.69;65.13
52923;BME280;38796;42.702;23.306;2023-02-05T09:14:31;95793.44;;;-1.83;65.71
52923;BME280;38796;42.702;23.306;2023-02-05T09:16:32;95795.69;;;-1.74;65.81
52923;BME280;38796;42.702;23.306;2023-02-05T09:18:30;95796.91;;;-2.14;66.56
52923;BME280;38796;42.702;23.306;2023-02-05T09:20:28;95800.31;;;-2.12;66.88
52923;BME280;38796;42.702;23.306;2023-02-05T09:22:28;95800.53;;;-1.91;66.20
52923;BME280;38796;42.702;23.306;2023-02-05T09:24:26;95797.50;;;-2.04;65.40
52923;BME280;38796;42.702;23.306;2023-02-05T09:26:25;95795.69;;;-1.74;66.18
52923;BME280;38796;42.702;23.306;2023-02-05T09:28:23;95796.75;;;-1.80;65.97
52923;BME280;38796;42.702;23.306;2023-02-05T09:30:21;95808.16;;;-1.87;65.63
52923;BME280;38796;42.702;23.306;2023-02-05T09:32:20;95805.69;;;-1.91;64.59
52923;BME280;38796;42.702;23.306;2023-02-05T09:34:18;95805.47;;;-2.12;64.62
52923;BME280;38796;42.702;23.306;2023-02-05T09:36:17;95818.69;;;-2.23;65.38
52923;BME280;38796;42.702;23.306;2023-02-05T09:38:18;95808.91;;;-2.13;65.24
52923;BME280;38796;42.702;23.306;2023-02-05T09:40:18;95809.38;;;-2.28;64.90
52923;BME280;38796;42.702;23.306;2023-02-05T09:42:27;95817.31;;;-2.36;66.60
52923;BME280;38796;42.702;23.306;2023-02-05T09:44:46;95811.41;;;-2.39;66.71
52923;BME280;38796;42.702;23.306;2023-02-05T09:47:02;95817.09;;;-2.28;67.83
52923;BME280;38796;42.702;23.306;2023-02-05T09:49:09;95825.75;;;-2.29;66.50
52923;BME280;38796;42.702;23.306;2023-02-05T09:51:10;95822.25;;;-2.28;66.77
52923;BME280;38796;42.702;23.306;2023-02-05T09:53:15;95826.97;;;-2.43;66.63
52923;BME280;38796;42.702;23.306;2023-02-05T09:55:19;95819.28;;;-2.44;65.72
52923;BME280;38796;42.702;23.306;2023-02-05T09:57:29;95821.88;;;-2.46;66.23
52923;BME280;38796;42.702;23.306;2023-02-05T09:59:30;95812.56;;;-2.50;67.93
52923;BME280;38796;42.702;23.306;2023-02-05T10:01:38;95811.75;;;-2.52;67.13
52923;BME280;38796;42.702;23.306;2023-02-05T10:03:42;95808.28;;;-2.51;66.14
52923;BME280;38796;42.702;23.306;2023-02-05T10:05:46;95811.00;;;-2.55;66.40
52923;BME280;38796;42.702;23.306;2023-02-05T10:07:55;95815.78;;;-2.74;67.25
52923;BME280;38796;42.702;23.306;2023-02-05T10:10:23;95806.25;;;-2.71;66.85
52923;BME280;38796;42.702;23.306;2023-02-05T10:12:33;95819.66;;;-2.58;66.18
52923;BME280;38796;42.702;23.306;2023-02-05T10:14:43;95815.72;;;-2.71;65.68
52923;BME280;38796;42.702;23.306;2023-02-05T10:17:03;95818.38;;;-2.42;65.36
52923;BME280;38796;42.702;23.306;2023-02-05T10:19:25;95822.75;;;-2.45;65.00
52923;BME280;38796;42.702;23.306;2023-02-05T10:21:43;95823.09;;;-2.57;64.08
52923;BME280;38796;42.702;23.306;2023-02-05T10:23:57;95822.94;;;-2.53;66.41
52923;BME280;38796;42.702;23.306;2023-02-05T10:26:05;95822.53;;;-2.37;64.80
52923;BME280;38796;42.702;23.306;2023-02-05T10:28:14;95825.66;;;-2.26;63.96
52923;BME280;38796;42.702;23.306;2023-02-05T10:30:23;95818.69;;;-2.24;63.41
52923;BME280;38796;42.702;23.306;2023-02-05T10:32:36;95825.13;;;-2.08;63.38
52923;BME280;38796;42.702;23.306;2023-02-05T10:34:51;95833.31;;;-2.23;63.00